Sonoma, CA (95476)

5:58 AM PDT on August 05, 2015 (GMT -0700)
Just off the Plaza | | Change Station
CLOSE
Current Station
Personal Weather Station
Location: Sonoma, CA
Elevation: 80 ft
Nearby Weather Stations

Elev 80 ft 38.29 °N, 122.46 °W | Updated 7 minutes ago

Partly Cloudy
Partly Cloudy
57.0 °F
Feels Like 57.0 °F
N
0.0
Wind Variable Wind from South
Gusts 0.0 mph

Today
High -- | Low -- °F
--% Chance of Precip.
Yesterday
High -- | Low -- °F
Precip. -- in
6:15 AM 8:15 PM
Waning Gibbous, 67% visible
Pressure 30.05 in
Visibility 10.0 miles
Clouds Scattered Clouds 2600 ft
Scattered Clouds 3200 ft
Mostly Cloudy 5000 ft
Dew Point 52 °F
Humidity 84%
Rainfall 0.00 in
Snow Depth Not available.
UV 0 out of 12
Pollen 4.90 out of 12
Air Quality Not available.
Flu Activity Not available.
METAR KO69 051235Z AUTO 36003KT 10SM SCT026 SCT032 BKN050 12/12 A3005 RMK AO1

More Conditions Fewer Conditions

Pressure 30.05 in
Visibility 10.0 miles
Clouds Scattered Clouds 2600 ft
Scattered Clouds 3200 ft
Mostly Cloudy 5000 ft
Dew Point 52 °F
Humidity 84%
Rainfall 0.00 in
Snow Depth Not available.
UV 0 out of 12
Pollen 4.90 out of 12
Air Quality Not available.
Flu Activity Not available.
METAR KO69 051235Z AUTO 36003KT 10SM SCT026 SCT032 BKN050 12/12 A3005 RMK AO1

More Conditions Fewer Conditions

10-Day Weather Forecast

×

Almanac

Astronomy

Aug. 05, 2015 Rise Set
Actual Time
Civil Twilight
Nautical Twilight
Astronomical Twilight
Moon
Length of Visible Light
Length of Day
Tomorrow will be .
, % of the Moon is Illuminated

Today's Extremes

State Highs State Lows

Community

WunderPhotos

Upload Photos

1,844,175 photos uploaded!

WunderBlogs® & News

Nearby

Air Quality

  Air Quality AQ Index Pollutant
Not available.

Snow Depth

Station Depth Elevation

Earthquake Activity

City Distance Mag. Time & Date
Minimum magnitude displayed is 2.5.

Coastal Water Temperatures

Place Temperature

Stations

Nearby Weather Stations

Station Location Temp. Windchill Dew Point Humidity Wind Precip. Elev Updated Type